Time;durP1;ratioP1;P1;durP2;ratioP2;P2;SDS_P1;SDS_P2;PMS_P1;PMS_P2;Temp;Humidity;BMP_temperature;BMP_pressure;BME280_temperature;BME280_humidity;BME280_pressure;Samples;Min_cycle;Max_cycle;Signal;HPM_P1;HPM_P2
2022/05/17 00:00:57;;;;;;;18.67;9.50;;;13.90;99.90;;;;;;6251635;22;20033;-57
2022/05/17 00:03:23;;;;;;;15.45;9.55;;;13.20;99.90;;;;;;6247083;22;20344;-56
2022/05/17 00:05:48;;;;;;;17.42;9.52;;;13.20;99.90;;;;;;6247563;22;20011;-56
2022/05/17 00:08:14;;;;;;;14.10;9.60;;;13.20;99.90;;;;;;6247246;22;20007;-56
2022/05/17 00:10:39;;;;;;;16.15;8.73;;;13.30;99.90;;;;;;6241115;22;20046;-56
2022/05/17 00:13:05;;;;;;;14.77;8.55;;;13.30;99.90;;;;;;6254030;22;20558;-56
2022/05/17 00:15:31;;;;;;;26.30;8.85;;;13.30;99.90;;;;;;6250765;22;20403;-56
2022/05/17 00:17:56;;;;;;;15.82;8.43;;;13.30;99.90;;;;;;6246051;22;20506;-56
2022/05/17 00:20:22;;;;;;;15.00;7.97;;;13.30;99.90;;;;;;6246454;22;20000;-56
2022/05/17 00:22:47;;;;;;;13.50;8.32;;;13.40;99.90;;;;;;6247571;22;20459;-56
2022/05/17 00:25:15;;;;;;;14.00;7.88;;;13.40;99.90;;;;;;6250751;22;20329;-56
2022/05/17 00:27:40;;;;;;;14.35;7.68;;;13.30;99.90;;;;;;6177990;22;20742;-56
2022/05/17 00:30:08;;;;;;;13.05;8.20;;;13.20;99.90;;;;;;6252036;22;20007;-56
2022/05/17 00:32:33;;;;;;;13.60;7.45;;;13.20;99.90;;;;;;6250357;22;20468;-56
2022/05/17 00:34:59;;;;;;;13.70;8.38;;;13.10;99.90;;;;;;6251268;22;20026;-56
2022/05/17 00:37:24;;;;;;;12.95;8.75;;;13.10;99.90;;;;;;6251077;22;19996;-56
2022/05/17 00:39:49;;;;;;;15.48;8.00;;;13.00;99.90;;;;;;6255697;22;20042;-56
2022/05/17 00:42:15;;;;;;;15.05;8.25;;;13.00;99.90;;;;;;6255737;22;20008;-56
2022/05/17 00:44:44;;;;;;;13.55;8.52;;;12.90;99.90;;;;;;6256908;22;20011;-56
2022/05/17 00:47:12;;;;;;;19.02;8.60;;;12.90;99.90;;;;;;6245447;22;20000;-57
2022/05/17 00:49:52;;;;;;;11.50;7.78;;;12.90;99.90;;;;;;6248960;22;20012;-56
2022/05/17 00:52:43;;;;;;;16.88;9.10;;;12.80;99.90;;;;;;6247235;22;20011;-56
2022/05/17 00:55:51;;;;;;;13.60;8.45;;;12.80;99.90;;;;;;6253893;22;20007;-56
2022/05/17 00:58:23;;;;;;;14.32;8.95;;;12.80;99.90;;;;;;6252314;22;20011;-56
2022/05/17 01:00:55;;;;;;;15.30;9.50;;;12.80;99.90;;;;;;6252732;22;20015;-56
2022/05/17 01:03:21;;;;;;;15.50;9.20;;;12.70;99.90;;;;;;6221420;22;20007;-56
2022/05/17 01:05:47;;;;;;;18.13;9.25;;;12.70;99.90;;;;;;6247863;22;20012;-56
2022/05/17 01:08:13;;;;;;;16.75;10.65;;;12.70;99.90;;;;;;6250728;22;20970;-56
2022/05/17 01:10:39;;;;;;;18.42;9.60;;;12.60;99.90;;;;;;6251900;22;20039;-56
2022/05/17 01:15:49;;;;;;;14.25;9.20;;;12.60;99.90;;;;;;6248393;22;20512;-57
2022/05/17 01:18:15;;;;;;;15.23;8.98;;;12.50;99.90;;;;;;6253886;22;19995;-56
2022/05/17 01:20:40;;;;;;;15.90;10.13;;;12.40;99.90;;;;;;6255073;22;20003;-56
2022/05/17 01:23:06;;;;;;;18.13;10.52;;;12.40;99.90;;;;;;6252716;22;20651;-56
2022/05/17 01:25:33;;;;;;;13.20;9.43;;;12.40;99.90;;;;;;6251948;22;20030;-56
2022/05/17 01:28:07;;;;;;;18.73;10.15;;;12.40;99.90;;;;;;6171055;22;20012;-56
2022/05/17 01:30:33;;;;;;;18.92;10.07;;;12.30;99.90;;;;;;6222969;22;20039;-59
2022/05/17 01:32:59;;;;;;;12.27;9.45;;;12.30;99.90;;;;;;6254974;22;20007;-56
2022/05/17 01:35:24;;;;;;;15.30;10.13;;;12.30;99.90;;;;;;6254622;22;20086;-56
2022/05/17 01:37:52;;;;;;;15.38;9.70;;;12.30;99.90;;;;;;6256693;22;20008;-57
2022/05/17 01:40:18;;;;;;;15.13;9.75;;;12.00;99.90;;;;;;6254507;22;20008;-56
2022/05/17 01:42:43;;;;;;;16.75;10.20;;;12.20;99.90;;;;;;6251500;22;20428;-56
2022/05/17 01:45:09;;;;;;;17.95;10.77;;;12.20;99.90;;;;;;6246976;22;20416;-56
2022/05/17 01:47:34;;;;;;;14.73;9.93;;;12.20;99.90;;;;;;6246362;22;20042;-60
2022/05/17 01:50:00;;;;;;;22.17;10.25;;;12.20;99.90;;;;;;6245028;22;20088;-56
2022/05/17 01:52:25;;;;;;;17.55;10.27;;;12.20;99.90;;;;;;6259198;22;20026;-56
2022/05/17 01:54:51;;;;;;;17.88;10.35;;;12.20;99.90;;;;;;6250372;22;20019;-57
2022/05/17 01:57:16;;;;;;;18.02;11.48;;;12.30;99.90;;;;;;6251809;22;20390;-57
2022/05/17 01:59:42;;;;;;;18.50;10.20;;;12.30;99.90;;;;;;6248074;22;20432;-57
2022/05/17 02:02:08;;;;;;;18.27;10.30;;;12.20;99.90;;;;;;6251700;22;20095;-57
2022/05/17 02:04:33;;;;;;;16.42;9.38;;;12.20;99.90;;;;;;6257857;22;20660;-57
2022/05/17 02:06:59;;;;;;;19.45;10.90;;;12.10;99.90;;;;;;6243100;22;20014;-57
2022/05/17 02:09:24;;;;;;;19.73;10.48;;;12.10;99.90;;;;;;6251009;22;20055;-56
2022/05/17 02:11:50;;;;;;;20.50;12.50;;;12.00;99.90;;;;;;6253310;22;20008;-56
2022/05/17 02:14:17;;;;;;;17.70;10.48;;;12.00;99.90;;;;;;6252672;22;20038;-57
2022/05/17 02:16:43;;;;;;;18.42;11.77;;;11.90;99.90;;;;;;6254486;22;20084;-56
2022/05/17 02:19:08;;;;;;;21.45;11.15;;;11.90;99.90;;;;;;6250347;22;20078;-57
2022/05/17 02:21:35;;;;;;;20.38;11.60;;;11.90;99.90;;;;;;6251301;22;20116;-56
2022/05/17 02:24:01;;;;;;;22.35;11.43;;;11.90;99.90;;;;;;6248475;22;20490;-56
2022/05/17 02:26:26;;;;;;;15.30;10.65;;;11.90;99.90;;;;;;6249104;22;20091;-56
2022/05/17 02:28:52;;;;;;;20.17;12.05;;;11.90;99.90;;;;;;6161199;22;20087;-58
2022/05/17 02:31:18;;;;;;;17.52;10.18;;;11.80;99.90;;;;;;6254595;22;20401;-56
2022/05/17 02:33:44;;;;;;;27.63;12.13;;;11.80;99.90;;;;;;6256691;22;20011;-56
2022/05/17 02:36:09;;;;;;;22.20;11.77;;;11.80;99.90;;;;;;6246348;22;20023;-56
2022/05/17 02:38:35;;;;;;;30.35;12.70;;;11.80;99.90;;;;;;6249203;22;20011;-56
2022/05/17 02:41:00;;;;;;;20.90;12.30;;;11.90;99.90;;;;;;6251464;22;20004;-56
2022/05/17 02:43:26;;;;;;;17.45;11.68;;;11.90;99.90;;;;;;6254071;22;20284;-56
2022/05/17 02:45:53;;;;;;;20.88;12.82;;;12.70;99.90;;;;;;6252488;22;20030;-57
2022/05/17 02:48:18;;;;;;;24.15;12.43;;;11.90;99.90;;;;;;6247602;22;20008;-56
2022/05/17 02:50:44;;;;;;;27.45;12.32;;;11.90;99.90;;;;;;6246845;22;20018;-56
2022/05/17 02:53:09;;;;;;;18.38;10.70;;;11.90;99.90;;;;;;6246107;22;20514;-56
2022/05/17 02:55:35;;;;;;;17.70;12.00;;;11.90;99.90;;;;;;6255243;22;20011;-56
2022/05/17 02:58:00;;;;;;;23.88;12.85;;;11.80;99.90;;;;;;6251350;22;20054;-56
2022/05/17 03:00:26;;;;;;;23.10;12.48;;;11.80;99.90;;;;;;6248590;22;20438;-55
2022/05/17 03:02:52;;;;;;;22.92;12.07;;;11.80;99.90;;;;;;6246959;22;20332;-57
2022/05/17 03:05:17;;;;;;;21.55;12.27;;;11.80;99.90;;;;;;6250212;22;20011;-56
2022/05/17 03:07:43;;;;;;;22.55;12.77;;;11.70;99.90;;;;;;6245461;22;20000;-56
2022/05/17 03:10:09;;;;;;;21.20;12.02;;;11.70;99.90;;;;;;6253121;22;20003;-56
2022/05/17 03:12:35;;;;;;;26.90;12.88;;;11.70;99.90;;;;;;6252967;22;20026;-56
2022/05/17 03:15:00;;;;;;;21.33;12.43;;;11.80;99.90;;;;;;6248353;22;20260;-56
2022/05/17 03:22:36;;;;;;;20.92;12.98;;;11.80;99.90;;;;;;6222054;22;20035;-55
2022/05/17 03:25:03;;;;;;;26.55;13.40;;;11.80;99.90;;;;;;6219283;23;20032;-57
2022/05/17 03:27:28;;;;;;;27.52;12.93;;;12.30;99.90;;;;;;6221780;22;20161;-55
2022/05/17 03:29:54;;;;;;;23.80;12.57;;;11.90;99.90;;;;;;6177170;23;20196;-55
2022/05/17 03:32:19;;;;;;;20.60;12.60;;;12.20;99.90;;;;;;6217324;23;20629;-55
2022/05/17 03:34:45;;;;;;;19.60;10.52;;;12.10;99.90;;;;;;6214921;22;20529;-56
2022/05/17 03:37:11;;;;;;;26.17;11.32;;;12.20;99.90;;;;;;6219547;23;20026;-55
2022/05/17 03:39:36;;;;;;;20.80;11.05;;;12.30;99.90;;;;;;6220092;22;20506;-56
2022/05/17 03:42:02;;;;;;;19.02;10.40;;;12.30;99.90;;;;;;6222041;23;20510;-55
2022/05/17 03:44:27;;;;;;;23.52;10.60;;;12.40;99.90;;;;;;6217481;23;20008;-55
2022/05/17 03:46:53;;;;;;;18.88;10.02;;;12.50;99.90;;;;;;6216567;23;20058;-55
2022/05/17 03:49:18;;;;;;;15.63;8.90;;;12.60;99.90;;;;;;6217039;23;20062;-56
2022/05/17 03:51:50;;;;;;;14.98;9.23;;;12.70;99.90;;;;;;6209701;23;20444;-55
2022/05/17 03:54:22;;;;;;;20.40;9.35;;;12.70;99.90;;;;;;6217217;22;20101;-55
2022/05/17 03:56:47;;;;;;;21.90;8.93;;;12.80;99.90;;;;;;6218200;22;20015;-56
2022/05/17 03:59:13;;;;;;;16.98;8.75;;;12.90;99.90;;;;;;6222870;23;19996;-56
2022/05/17 04:01:38;;;;;;;20.20;9.77;;;12.90;99.90;;;;;;6218183;23;20335;-55
2022/05/17 04:04:04;;;;;;;14.65;8.63;;;13.00;99.90;;;;;;6220634;23;20014;-56
2022/05/17 04:06:29;;;;;;;25.00;9.77;;;13.10;99.90;;;;;;6217967;23;20332;-55
2022/05/17 04:08:55;;;;;;;16.73;9.23;;;13.20;99.90;;;;;;6226378;23;20345;-56
2022/05/17 04:11:20;;;;;;;19.52;8.32;;;13.20;99.90;;;;;;6229310;23;20008;-55
2022/05/17 04:13:46;;;;;;;16.13;8.80;;;13.30;99.90;;;;;;6219113;23;20008;-56
2022/05/17 04:16:11;;;;;;;19.85;8.68;;;13.40;99.90;;;;;;6221645;23;20000;-55
2022/05/17 04:18:37;;;;;;;18.30;7.80;;;13.40;99.90;;;;;;6220817;23;20011;-56
2022/05/17 04:21:03;;;;;;;18.48;7.95;;;13.40;99.90;;;;;;6226966;22;20554;-56
2022/05/17 04:23:29;;;;;;;13.68;8.10;;;13.40;99.90;;;;;;6221795;22;20627;-55
2022/05/17 04:25:54;;;;;;;16.95;9.10;;;13.50;99.90;;;;;;6226268;22;20091;-55
2022/05/17 04:28:20;;;;;;;18.98;7.95;;;13.50;99.90;;;;;;6169836;22;20441;-55
2022/05/17 04:30:46;;;;;;;15.65;8.23;;;13.60;99.90;;;;;;6217255;23;20396;-55
2022/05/17 04:33:12;;;;;;;17.90;8.07;;;13.70;99.90;;;;;;6221195;22;20004;-56
2022/05/17 04:35:38;;;;;;;17.40;7.53;;;13.80;99.90;;;;;;6223590;23;20007;-56
2022/05/17 04:38:04;;;;;;;18.20;7.28;;;13.90;99.90;;;;;;6229295;22;19996;-56
2022/05/17 04:40:29;;;;;;;18.17;8.00;;;13.80;99.90;;;;;;6218740;22;19996;-56
2022/05/17 04:42:57;;;;;;;17.67;8.02;;;13.90;99.90;;;;;;6219447;22;20008;-57
2022/05/17 04:45:23;;;;;;;18.33;7.78;;;13.90;99.90;;;;;;6219197;22;20012;-56
2022/05/17 04:47:48;;;;;;;18.75;8.43;;;13.90;99.90;;;;;;6218693;22;20015;-56
2022/05/17 04:50:14;;;;;;;14.48;7.75;;;14.00;99.90;;;;;;6225965;22;20000;-56
2022/05/17 04:52:39;;;;;;;13.30;7.80;;;14.10;99.90;;;;;;6222129;22;20063;-56
2022/05/17 04:55:06;;;;;;;16.30;8.30;;;14.10;99.90;;;;;;6219821;22;20000;-56
2022/05/17 04:57:32;;;;;;;12.85;6.97;;;14.10;99.90;;;;;;6234636;22;20463;-56
2022/05/17 04:59:59;;;;;;;15.73;7.88;;;14.20;99.90;;;;;;6229533;22;20000;-56
2022/05/17 05:02:25;;;;;;;15.88;7.88;;;14.30;99.90;;;;;;6226971;22;20001;-56
2022/05/17 05:04:50;;;;;;;18.92;7.97;;;14.30;99.90;;;;;;6222329;22;20069;-56
2022/05/17 05:07:16;;;;;;;12.50;7.75;;;14.40;99.90;;;;;;6220323;22;20599;-56
2022/05/17 05:09:41;;;;;;;13.75;7.57;;;14.40;99.90;;;;;;6222701;22;20011;-56
2022/05/17 05:12:07;;;;;;;13.77;7.95;;;14.60;99.90;;;;;;6229919;22;20082;-55
2022/05/17 05:14:33;;;;;;;18.08;7.65;;;14.70;99.90;;;;;;6222200;22;20011;-55
2022/05/17 05:16:58;;;;;;;15.05;7.88;;;14.80;99.90;;;;;;6223041;22;20007;-56
2022/05/17 05:19:24;;;;;;;10.45;7.70;;;14.90;99.90;;;;;;6222721;22;20057;-56
2022/05/17 05:21:49;;;;;;;13.30;7.25;;;15.10;99.90;;;;;;6226976;22;20023;-57
2022/05/17 05:24:15;;;;;;;11.70;7.00;;;15.10;99.90;;;;;;6226915;22;20012;-56
2022/05/17 05:26:40;;;;;;;14.10;7.07;;;15.30;99.90;;;;;;6235641;22;20008;-64
2022/05/17 05:29:06;;;;;;;13.07;7.00;;;15.40;99.90;;;;;;6231806;23;20655;-56
2022/05/17 05:31:32;;;;;;;10.55;7.03;;;15.50;99.90;;;;;;6230861;22;20531;-56
2022/05/17 05:34:00;;;;;;;11.85;7.07;;;15.60;99.90;;;;;;6236089;22;20008;-55
2022/05/17 05:36:26;;;;;;;14.35;7.10;;;15.60;99.90;;;;;;6233594;22;20436;-58
2022/05/17 05:38:51;;;;;;;13.73;7.18;;;15.80;99.90;;;;;;6231790;22;20000;-56
2022/05/17 05:41:17;;;;;;;16.85;7.15;;;15.70;99.90;;;;;;6228535;23;20058;-56
2022/05/17 05:43:42;;;;;;;20.38;7.07;;;15.60;99.90;;;;;;6233416;22;20038;-57
2022/05/17 05:46:08;;;;;;;16.80;7.50;;;15.70;99.90;;;;;;6215265;23;20364;-56
2022/05/17 05:48:34;;;;;;;11.70;7.00;;;15.80;99.90;;;;;;6227612;23;20666;-56
2022/05/17 05:50:59;;;;;;;15.77;6.75;;;15.90;99.90;;;;;;6234903;22;20011;-56
2022/05/17 05:53:25;;;;;;;15.90;7.22;;;16.00;99.90;;;;;;6232631;22;20007;-56
2022/05/17 05:55:54;;;;;;;17.50;8.27;;;16.00;99.90;;;;;;6234748;22;20012;-56
2022/05/17 05:58:19;;;;;;;16.10;7.20;;;15.70;99.90;;;;;;6233566;22;20004;-56
2022/05/17 06:00:45;;;;;;;17.25;7.60;;;15.90;99.90;;;;;;6235533;22;20000;-56
2022/05/17 06:03:10;;;;;;;15.80;7.20;;;16.10;99.90;;;;;;6233581;22;20000;-57
2022/05/17 06:05:37;;;;;;;22.33;7.93;;;16.30;99.90;;;;;;6236124;22;20015;-56
2022/05/17 06:08:03;;;;;;;19.27;7.75;;;16.40;99.90;;;;;;6233561;22;20008;-57
2022/05/17 06:10:29;;;;;;;16.55;7.50;;;16.80;99.90;;;;;;6235197;22;20421;-56
2022/05/17 06:12:54;;;;;;;22.55;7.57;;;17.10;99.90;;;;;;6233719;22;20007;-56
2022/05/17 06:15:20;;;;;;;16.25;7.25;;;17.00;99.90;;;;;;6235910;22;20365;-56
2022/05/17 06:17:45;;;;;;;24.08;7.88;;;17.30;99.90;;;;;;6233396;22;20091;-56
2022/05/17 06:20:11;;;;;;;16.70;6.38;;;17.40;99.90;;;;;;6235590;22;20014;-56
2022/05/17 06:22:38;;;;;;;16.38;6.97;;;17.40;99.90;;;;;;6232961;22;20016;-56
2022/05/17 06:25:04;;;;;;;15.32;7.03;;;17.00;99.90;;;;;;6229256;23;20181;-56
2022/05/17 06:27:30;;;;;;;13.90;7.10;;;17.30;99.90;;;;;;6223129;22;20004;-56
2022/05/17 06:29:55;;;;;;;18.80;6.88;;;17.30;99.90;;;;;;6170284;22;20519;-54
2022/05/17 06:32:21;;;;;;;20.17;7.80;;;17.60;99.90;;;;;;6235941;22;20008;-55
2022/05/17 06:34:46;;;;;;;16.30;6.90;;;17.30;99.90;;;;;;6233330;22;20391;-54
2022/05/17 06:37:12;;;;;;;14.80;6.88;;;17.40;99.90;;;;;;6235995;22;20011;-54
2022/05/17 06:39:39;;;;;;;15.68;6.13;;;17.50;99.60;;;;;;6231536;22;20006;-55
2022/05/17 06:42:05;;;;;;;14.48;6.65;;;17.60;99.20;;;;;;6230118;22;20004;-55
2022/05/17 06:44:32;;;;;;;17.13;5.85;;;17.60;99.40;;;;;;6228537;22;20494;-57
2022/05/17 06:46:58;;;;;;;11.40;5.50;;;18.00;99.00;;;;;;6236067;22;20023;-57
2022/05/17 06:49:25;;;;;;;10.57;5.85;;;18.30;98.50;;;;;;6233836;22;20000;-55
2022/05/17 06:51:50;;;;;;;14.43;6.07;;;18.40;98.30;;;;;;6231133;22;20019;-55
2022/05/17 06:54:16;;;;;;;11.27;7.07;;;18.90;97.80;;;;;;6231356;22;20444;-55
2022/05/17 06:56:50;;;;;;;22.42;6.72;;;19.00;97.30;;;;;;6234903;22;20019;-58
2022/05/17 06:59:16;;;;;;;17.52;5.88;;;20.30;94.90;;;;;;6224236;23;20004;-55
2022/05/17 07:01:42;;;;;;;15.02;5.90;;;20.50;93.50;;;;;;6233392;22;20004;-56
2022/05/17 07:04:07;;;;;;;12.63;6.40;;;21.40;92.00;;;;;;6227082;23;19996;-60
2022/05/17 07:06:33;;;;;;;12.90;6.50;;;22.00;90.90;;;;;;6229921;22;20478;-60
2022/05/17 07:08:58;;;;;;;16.05;6.95;;;21.70;91.90;;;;;;6234864;22;20019;-60
2022/05/17 07:14:08;;;;;;;29.40;8.93;;;22.20;90.40;;;;;;6233914;23;20034;-60
2022/05/17 07:16:34;;;;;;;14.20;7.07;;;22.70;89.20;;;;;;6232411;22;19997;-60
2022/05/17 07:18:59;;;;;;;12.15;6.43;;;23.10;86.90;;;;;;6234676;22;20005;-60
2022/05/17 07:21:25;;;;;;;18.58;6.43;;;23.20;85.70;;;;;;6233025;22;20020;-60
2022/05/17 07:23:51;;;;;;;14.57;7.22;;;23.70;82.30;;;;;;6233032;22;19996;-60
2022/05/17 07:26:16;;;;;;;18.25;7.30;;;24.60;78.10;;;;;;6231675;22;20008;-60
2022/05/17 07:28:43;;;;;;;15.73;6.60;;;24.20;77.60;;;;;;6235679;22;20297;-60
2022/05/17 07:31:09;;;;;;;19.30;6.88;;;23.80;79.60;;;;;;6233637;22;20023;-60
2022/05/17 07:33:35;;;;;;;12.95;6.35;;;23.30;83.50;;;;;;6236255;22;20495;-60
2022/05/17 07:36:01;;;;;;;15.40;7.35;;;22.90;87.10;;;;;;6233405;22;20043;-60
2022/05/17 07:38:26;;;;;;;17.67;7.97;;;22.50;86.40;;;;;;6230867;22;20731;-60
2022/05/17 07:40:53;;;;;;;17.40;7.07;;;22.70;88.20;;;;;;6228506;22;20038;-60
2022/05/17 07:43:18;;;;;;;11.15;5.78;;;22.60;87.80;;;;;;6229231;23;20019;-60
2022/05/17 07:45:44;;;;;;;15.10;6.60;;;24.40;76.90;;;;;;6230666;22;20020;-61
2022/05/17 07:48:11;;;;;;;17.92;5.00;;;24.40;75.00;;;;;;6232460;22;20424;-60
2022/05/17 07:50:36;;;;;;;12.60;4.97;;;24.70;69.70;;;;;;6225891;22;20008;-61
2022/05/17 07:53:09;;;;;;;14.85;5.18;;;25.40;70.10;;;;;;6235205;22;20075;-60
2022/05/17 07:55:36;;;;;;;14.30;5.53;;;25.80;64.10;;;;;;6232152;22;20102;-60
2022/05/17 07:58:20;;;;;;;13.52;5.15;;;24.60;69.30;;;;;;6234532;22;20004;-60
2022/05/17 08:00:46;;;;;;;12.07;5.38;;;24.10;72.40;;;;;;6226709;23;20623;-61
2022/05/17 08:03:12;;;;;;;10.82;5.28;;;22.80;80.30;;;;;;6234497;22;20155;-61
2022/05/17 08:05:38;;;;;;;12.38;5.93;;;22.80;85.30;;;;;;6229805;23;20004;-61
2022/05/17 08:08:04;;;;;;;16.88;6.80;;;23.10;84.80;;;;;;6234854;22;20006;-58
2022/05/17 08:10:29;;;;;;;14.27;6.00;;;21.80;88.50;;;;;;6232198;22;20077;-58
2022/05/17 08:12:55;;;;;;;13.68;6.30;;;21.90;90.20;;;;;;6234858;22;20720;-58
2022/05/17 08:15:23;;;;;;;16.70;7.07;;;22.20;89.60;;;;;;6225190;22;20008;-59
2022/05/17 08:17:48;;;;;;;16.17;6.13;;;22.30;90.10;;;;;;6228915;22;20004;-58
2022/05/17 08:20:14;;;;;;;17.05;6.90;;;22.20;91.00;;;;;;6223078;22;20160;-59
2022/05/17 08:22:40;;;;;;;12.38;5.90;;;22.00;90.30;;;;;;6226539;22;20040;-59
2022/05/17 08:27:51;;;;;;;14.65;5.43;;;22.10;90.80;;;;;;6229411;23;20019;-58
2022/05/17 08:30:19;;;;;;;23.42;6.53;;;22.20;90.60;;;;;;6227300;22;20355;-58
2022/05/17 08:35:42;;;;;;;14.52;5.53;;;22.10;90.90;;;;;;6227828;23;20065;-58
2022/05/17 08:38:08;;;;;;;12.80;5.32;;;22.30;90.80;;;;;;6227783;23;20007;-58
2022/05/17 08:40:55;;;;;;;11.13;5.40;;;22.90;90.10;;;;;;6225580;23;20546;-57
2022/05/17 08:43:49;;;;;;;10.25;4.80;;;23.40;86.10;;;;;;6228641;23;20487;-58
2022/05/17 08:46:35;;;;;;;13.73;5.40;;;23.90;85.70;;;;;;6230343;22;20027;-58
2022/05/17 08:49:19;;;;;;;14.82;5.40;;;24.00;79.20;;;;;;6229807;22;20007;-58
2022/05/17 08:51:56;;;;;;;14.30;5.60;;;24.00;79.90;;;;;;6226656;22;20008;-58
2022/05/17 08:54:25;;;;;;;11.85;4.78;;;23.80;81.80;;;;;;6224767;23;20004;-58
2022/05/17 08:57:01;;;;;;;17.33;5.00;;;23.70;77.70;;;;;;6229582;23;20004;-58
2022/05/17 08:59:26;;;;;;;19.17;5.60;;;24.10;77.40;;;;;;6226837;23;20073;-58
2022/05/17 09:02:07;;;;;;;15.35;5.03;;;24.30;77.70;;;;;;6227419;23;20816;-58
2022/05/17 09:04:55;;;;;;;15.80;4.97;;;24.60;73.70;;;;;;6227033;23;20008;-58
2022/05/17 09:07:28;;;;;;;13.30;4.15;;;24.40;73.70;;;;;;6229532;23;20035;-58
2022/05/17 09:10:03;;;;;;;18.77;5.30;;;25.20;70.50;;;;;;6226984;23;20279;-58
2022/05/17 09:12:42;;;;;;;12.38;4.00;;;24.50;72.80;;;;;;6228952;23;20452;-58
2022/05/17 09:15:08;;;;;;;13.23;4.38;;;24.80;69.70;;;;;;6224501;23;20429;-59
2022/05/17 09:17:34;;;;;;;11.32;3.55;;;24.80;72.30;;;;;;6228657;23;20011;-57
2022/05/17 09:20:00;;;;;;;13.10;3.42;;;25.30;67.40;;;;;;6228794;22;20702;-57
2022/05/17 09:22:25;;;;;;;7.47;3.72;;;25.30;63.40;;;;;;6230019;22;20020;-57
2022/05/17 09:25:00;;;;;;;15.80;4.70;;;25.20;64.00;;;;;;6232597;22;20008;-57
2022/05/17 09:27:33;;;;;;;10.07;2.88;;;25.90;62.10;;;;;;6235516;22;20431;-57
2022/05/17 09:30:10;;;;;;;11.18;3.55;;;28.50;58.70;;;;;;6233287;22;20535;-57
2022/05/17 09:32:38;;;;;;;12.57;3.67;;;28.10;56.00;;;;;;6233939;23;20058;-62
2022/05/17 09:35:24;;;;;;;7.50;2.90;;;27.10;57.40;;;;;;6233614;22;20026;-57
2022/05/17 09:37:54;;;;;;;8.82;3.30;;;26.70;58.20;;;;;;6235685;22;20005;-58
2022/05/17 09:40:23;;;;;;;13.15;3.65;;;25.70;60.90;;;;;;6231928;23;19996;-59
2022/05/17 09:42:53;;;;;;;10.35;3.30;;;25.10;62.30;;;;;;6235635;22;20008;-58
2022/05/17 09:45:19;;;;;;;10.55;2.85;;;25.20;63.20;;;;;;6234046;22;20057;-58
2022/05/17 09:47:59;;;;;;;8.82;3.22;;;24.80;62.00;;;;;;6236051;22;20163;-58
2022/05/17 09:53:14;;;;;;;13.93;3.40;;;24.40;64.00;;;;;;6233492;23;20050;-58
2022/05/17 09:55:43;;;;;;;7.63;2.85;;;25.00;62.80;;;;;;6231773;23;20001;-58
2022/05/17 09:58:32;;;;;;;7.40;2.67;;;25.20;61.20;;;;;;6233620;23;20326;-58
2022/05/17 10:00:58;;;;;;;9.30;2.60;;;26.00;59.80;;;;;;6233791;22;20008;-57
2022/05/17 10:03:34;;;;;;;10.38;3.63;;;25.50;58.70;;;;;;6233655;23;20502;-58
2022/05/17 10:06:05;;;;;;;9.90;2.97;;;25.80;59.80;;;;;;6233421;22;20075;-57
2022/05/17 10:08:47;;;;;;;11.68;3.58;;;25.50;60.70;;;;;;6235769;22;20011;-57
2022/05/17 10:11:22;;;;;;;8.48;3.00;;;25.60;61.30;;;;;;6234022;23;20024;-58
2022/05/17 10:13:52;;;;;;;8.25;3.33;;;25.60;61.20;;;;;;6233140;22;20336;-58
2022/05/17 10:16:29;;;;;;;7.97;3.67;;;25.40;60.50;;;;;;6235268;22;20008;-58
2022/05/17 10:19:00;;;;;;;5.68;2.50;;;25.10;61.50;;;;;;6231469;22;20004;-58
2022/05/17 10:21:30;;;;;;;11.30;3.00;;;25.60;60.10;;;;;;6234017;23;20023;-57
2022/05/17 10:24:17;;;;;;;12.52;3.58;;;25.30;60.30;;;;;;6233386;22;20078;-58
2022/05/17 10:27:11;;;;;;;11.57;3.17;;;25.20;60.10;;;;;;6236152;22;20008;-58
2022/05/17 10:29:45;;;;;;;11.10;3.20;;;25.60;60.80;;;;;;6232368;23;20188;-58
2022/05/17 10:32:37;;;;;;;12.05;3.75;;;25.30;60.90;;;;;;6230858;23;20000;-58
2022/05/17 10:35:51;;;;;;;7.55;3.17;;;25.30;61.80;;;;;;6226771;23;20066;-58
2022/05/17 10:38:29;;;;;;;6.15;2.75;;;25.10;61.10;;;;;;6201638;23;20445;-58
2022/05/17 10:40:54;;;;;;;10.43;3.05;;;24.80;60.10;;;;;;6228779;23;20008;-58
2022/05/17 10:43:26;;;;;;;6.78;2.45;;;24.60;61.20;;;;;;6228280;22;20440;-58
2022/05/17 10:46:04;;;;;;;11.27;2.47;;;24.30;62.10;;;;;;6230811;22;20062;-58
2022/05/17 10:48:53;;;;;;;8.75;2.72;;;24.40;61.50;;;;;;6227971;22;20008;-59
2022/05/17 10:51:25;;;;;;;9.93;3.00;;;24.60;60.50;;;;;;6215956;23;20011;-59
2022/05/17 10:54:12;;;;;;;10.32;3.05;;;24.20;62.50;;;;;;6226008;23;20008;-58
2022/05/17 10:56:55;;;;;;;7.47;2.45;;;24.40;62.20;;;;;;6230244;22;20102;-58
2022/05/17 10:59:44;;;;;;;3.75;2.17;;;24.00;61.20;;;;;;6226396;23;20012;-58
2022/05/17 11:02:35;;;;;;;10.95;2.20;;;24.20;59.70;;;;;;6226044;23;20008;-58
2022/05/17 11:05:24;;;;;;;8.63;2.38;;;24.10;60.70;;;;;;6227991;23;20000;-58
2022/05/17 11:08:07;;;;;;;6.65;2.10;;;24.00;59.90;;;;;;6226002;23;20746;-58
2022/05/17 11:10:51;;;;;;;6.72;2.38;;;23.90;60.90;;;;;;6228312;23;20031;-58
2022/05/17 11:13:31;;;;;;;4.63;1.77;;;23.90;62.60;;;;;;6227487;22;20012;-59
2022/05/17 11:16:13;;;;;;;6.63;2.00;;;23.80;61.40;;;;;;6228058;23;20286;-58
2022/05/17 11:18:43;;;;;;;5.32;2.08;;;23.90;61.70;;;;;;6227727;22;20003;-58
2022/05/17 11:21:27;;;;;;;7.90;2.10;;;23.60;61.40;;;;;;6227810;22;20331;-59
2022/05/17 11:24:20;;;;;;;5.28;1.70;;;23.40;63.30;;;;;;6224270;23;20010;-58
2022/05/17 11:27:09;;;;;;;6.90;2.20;;;23.60;63.10;;;;;;6197248;23;20011;-59
2022/05/17 11:29:49;;;;;;;7.50;2.15;;;23.60;60.40;;;;;;6228384;22;20003;-59
2022/05/17 11:32:15;;;;;;;7.57;2.28;;;23.70;61.30;;;;;;6227884;22;20004;-58
2022/05/17 11:34:44;;;;;;;7.63;1.70;;;24.20;61.20;;;;;;6229392;22;20055;-59
2022/05/17 11:37:32;;;;;;;11.00;2.47;;;24.80;60.10;;;;;;6228206;22;20004;-58
2022/05/17 11:39:59;;;;;;;4.05;2.00;;;24.80;58.70;;;;;;6229882;22;20012;-59
2022/05/17 11:43:40;;;;;;;5.70;2.50;;;25.20;58.70;;;;;;6228080;22;20591;-59
2022/05/17 11:45:39;;;;;;;5.97;1.73;;;24.60;58.00;;;;;;6227107;23;20008;-58
2022/05/17 11:48:05;;;;;;;8.02;2.20;;;25.30;56.60;;;;;;6229871;22;20426;-59
2022/05/17 11:50:31;;;;;;;6.10;2.05;;;25.20;56.90;;;;;;6226290;23;20012;-58
2022/05/17 11:53:22;;;;;;;5.97;1.75;;;25.20;56.30;;;;;;6230044;22;20016;-62
2022/05/17 11:56:24;;;;;;;5.90;1.50;;;25.60;55.20;;;;;;6227531;22;20012;-59
2022/05/17 11:58:54;;;;;;;6.47;1.38;;;25.90;54.30;;;;;;6229676;22;20004;-59
2022/05/17 12:01:26;;;;;;;3.05;1.60;;;26.30;54.60;;;;;;6225729;23;20081;-59
2022/05/17 12:03:53;;;;;;;3.38;1.58;;;26.40;54.70;;;;;;6229169;22;20070;-59
2022/05/17 12:06:41;;;;;;;8.20;2.38;;;27.30;53.20;;;;;;6227423;22;20444;-58
2022/05/17 12:09:18;;;;;;;5.72;1.67;;;27.90;52.30;;;;;;6230199;22;20160;-59
2022/05/17 12:11:56;;;;;;;6.75;2.13;;;27.50;53.60;;;;;;6227727;22;20164;-59
2022/05/17 12:14:24;;;;;;;4.13;1.67;;;28.10;53.10;;;;;;6227914;23;20012;-58
2022/05/17 12:16:54;;;;;;;3.95;1.60;;;28.00;50.10;;;;;;6225606;23;20000;-58
2022/05/17 12:19:29;;;;;;;5.38;1.70;;;27.50;50.90;;;;;;6229334;22;20000;-58
2022/05/17 12:22:00;;;;;;;5.55;1.67;;;27.20;50.50;;;;;;6228031;22;20111;-58
2022/05/17 12:24:47;;;;;;;4.35;1.58;;;27.30;51.30;;;;;;6229853;22;20040;-57
2022/05/17 12:27:18;;;;;;;10.38;2.10;;;27.70;51.10;;;;;;6232694;23;20016;-58
2022/05/17 12:32:51;;;;;;;7.38;2.30;;;26.80;51.50;;;;;;6230922;23;20406;-57
2022/05/17 12:35:25;;;;;;;4.28;2.13;;;27.10;51.80;;;;;;6229934;22;20091;-58
2022/05/17 12:37:50;;;;;;;6.53;2.42;;;26.50;51.80;;;;;;6232198;22;20003;-58
2022/05/17 12:43:05;;;;;;;9.05;2.13;;;27.20;52.30;;;;;;6232412;23;20047;-58
2022/05/17 12:45:37;;;;;;;6.05;2.00;;;27.20;51.30;;;;;;6227496;23;20004;-58
2022/05/17 12:48:10;;;;;;;6.03;2.03;;;27.20;51.30;;;;;;6230364;23;20440;-58
2022/05/17 12:50:58;;;;;;;6.85;2.45;;;27.70;51.30;;;;;;6223960;23;20012;-58
2022/05/17 12:53:39;;;;;;;6.95;2.20;;;26.90;53.30;;;;;;6222035;23;20446;-57
2022/05/17 12:56:10;;;;;;;4.32;1.98;;;27.40;52.80;;;;;;6218152;23;20326;-58
2022/05/17 12:58:38;;;;;;;7.00;2.63;;;26.90;52.70;;;;;;6229327;22;20429;-58
2022/05/17 13:01:04;;;;;;;8.43;2.17;;;27.00;53.50;;;;;;6228807;22;20000;-58
2022/05/17 13:03:31;;;;;;;4.95;2.03;;;27.30;52.10;;;;;;6231279;22;20000;-57
2022/05/17 13:06:01;;;;;;;5.72;2.10;;;26.50;53.60;;;;;;6227282;23;20008;-57
2022/05/17 13:08:37;;;;;;;6.45;2.10;;;26.00;53.00;;;;;;6231891;22;20008;-57
2022/05/17 13:11:04;;;;;;;4.45;2.03;;;25.40;55.00;;;;;;6229751;22;20066;-57
2022/05/17 13:13:34;;;;;;;8.10;2.10;;;25.60;55.10;;;;;;6231540;22;20030;-57
2022/05/17 13:16:08;;;;;;;8.35;1.90;;;25.50;55.50;;;;;;6226605;23;20019;-58